Time;durP1;ratioP1;P1;durP2;ratioP2;P2;SDS_P1;SDS_P2;PMS_P1;PMS_P2;Temp;Humidity;BMP_temperature;BMP_pressure;BME280_temperature;BME280_humidity;BME280_pressure;Samples;Min_cycle;Max_cycle;Signal;HPM_P1;HPM_P2
2023/03/12 00:00:39;;;;;;;3.03;2.60;;;-1.10;99.90;;;;;;4994232;28;20213;-80
2023/03/12 00:03:04;;;;;;;3.40;2.80;;;0.00;99.90;;;;;;4994434;28;20175;-81
2023/03/12 00:05:30;;;;;;;1.30;1.30;;;-1.10;99.90;;;;;;4992961;28;20181;-81
2023/03/12 00:07:58;;;;;;;1.70;1.60;;;-1.10;99.90;;;;;;4993006;28;20184;-80
2023/03/12 00:10:25;;;;;;;4.13;2.10;;;-1.10;99.90;;;;;;4976479;28;20197;-80
2023/03/12 00:12:51;;;;;;;4.00;3.60;;;-1.00;99.90;;;;;;4994326;28;20251;-80
2023/03/12 00:15:17;;;;;;;2.63;1.83;;;-1.10;99.90;;;;;;4993784;28;20226;-80
2023/03/12 00:17:42;;;;;;;2.87;2.33;;;-1.10;99.90;;;;;;4994193;28;20713;-80
2023/03/12 00:20:09;;;;;;;5.50;3.00;;;-1.10;99.90;;;;;;4993887;28;20192;-80
2023/03/12 00:22:34;;;;;;;1.30;1.30;;;-1.10;99.90;;;;;;4992966;28;20183;-80
2023/03/12 00:25:01;;;;;;;1.10;1.10;;;-1.10;99.90;;;;;;4993870;28;20230;-79
2023/03/12 00:27:27;;;;;;;4.00;2.47;;;-1.10;99.90;;;;;;4993707;28;20174;-80
2023/03/12 00:29:53;;;;;;;3.43;2.27;;;-1.00;99.90;;;;;;4976683;28;20187;-80
2023/03/12 00:32:19;;;;;;;1.63;1.53;;;-1.00;99.90;;;;;;4992763;28;20188;-80
2023/03/12 00:34:51;;;;;;;1.60;1.50;;;-1.00;99.90;;;;;;4994126;28;20186;-81
2023/03/12 00:37:16;;;;;;;5.17;3.00;;;-0.90;99.90;;;;;;4994005;28;20539;-80
2023/03/12 00:39:42;;;;;;;3.93;1.83;;;-1.00;99.90;;;;;;4993873;28;20182;-80
2023/03/12 00:42:08;;;;;;;6.27;2.00;;;-1.00;99.90;;;;;;4995717;28;20555;-80
2023/03/12 00:44:33;;;;;;;6.33;2.60;;;-0.90;99.90;;;;;;5013364;28;20177;-80
2023/03/12 00:46:59;;;;;;;2.20;2.00;;;-1.00;99.90;;;;;;5013461;28;20181;-80
2023/03/12 00:49:25;;;;;;;3.00;2.40;;;-0.90;99.90;;;;;;4995538;28;20198;-81
2023/03/12 00:51:50;;;;;;;8.20;2.73;;;-0.90;99.90;;;;;;4999194;28;20272;-80
2023/03/12 00:54:16;;;;;;;6.63;3.07;;;-0.40;99.90;;;;;;4999572;28;20190;-81
2023/03/12 00:56:42;;;;;;;3.37;2.20;;;-0.90;99.90;;;;;;5017619;28;20708;-80
2023/03/12 00:59:07;;;;;;;1.30;1.30;;;-0.90;99.90;;;;;;5021748;28;20196;-81
2023/03/12 01:01:33;;;;;;;4.93;3.23;;;-0.90;99.90;;;;;;5014823;28;20224;-80
2023/03/12 01:03:59;;;;;;;2.43;1.73;;;-0.90;99.90;;;;;;5020162;28;20205;-79
2023/03/12 01:06:25;;;;;;;1.87;1.37;;;-0.90;99.90;;;;;;5003318;28;20183;-79
2023/03/12 01:08:51;;;;;;;1.60;1.50;;;-0.90;99.90;;;;;;5013950;28;20188;-80
2023/03/12 01:11:20;;;;;;;3.67;2.90;;;0.20;99.90;;;;;;4997569;28;20651;-82
2023/03/12 01:13:46;;;;;;;1.83;1.73;;;-0.90;99.90;;;;;;5000510;28;20178;-78
2023/03/12 01:16:12;;;;;;;2.13;2.00;;;-0.90;99.90;;;;;;5019204;28;20232;-79
2023/03/12 01:18:38;;;;;;;1.40;1.40;;;-0.90;99.90;;;;;;5003535;28;20244;-79
2023/03/12 01:21:04;;;;;;;2.17;2.03;;;-0.90;99.90;;;;;;5019423;28;20199;-79
2023/03/12 01:23:30;;;;;;;4.23;2.97;;;-0.90;99.90;;;;;;4999955;28;20196;-79
2023/03/12 01:25:55;;;;;;;2.13;1.93;;;-0.80;99.90;;;;;;4979644;28;20186;-79
2023/03/12 01:28:22;;;;;;;1.53;1.43;;;-0.80;99.90;;;;;;4979109;28;20724;-80
2023/03/12 01:30:48;;;;;;;4.10;1.60;;;-0.80;99.90;;;;;;4979845;28;20195;-80
2023/03/12 01:33:13;;;;;;;1.20;1.20;;;-0.80;99.90;;;;;;4996844;28;20533;-80
2023/03/12 01:35:40;;;;;;;2.37;2.17;;;-0.70;99.90;;;;;;5000469;28;20219;-80
2023/03/12 01:38:07;;;;;;;2.23;2.03;;;-0.70;99.90;;;;;;5005531;28;20196;-80
2023/03/12 01:40:35;;;;;;;2.50;2.40;;;-0.70;99.90;;;;;;4996739;28;20248;-81
2023/03/12 01:43:31;;;;;;;6.00;2.63;;;-0.80;99.90;;;;;;4996808;28;20178;-80
2023/03/12 01:46:15;;;;;;;3.40;1.67;;;-0.80;99.90;;;;;;4996925;28;20269;-80
2023/03/12 01:48:44;;;;;;;1.80;1.70;;;-0.80;99.90;;;;;;4996645;28;20177;-80
2023/03/12 01:51:12;;;;;;;2.03;1.83;;;-0.90;99.90;;;;;;4996600;28;20642;-80
2023/03/12 01:53:41;;;;;;;3.07;2.17;;;-2.60;99.90;;;;;;5001124;28;20332;-80
2023/03/12 01:56:08;;;;;;;12.60;2.20;;;-0.90;99.90;;;;;;5016363;28;20299;-80
2023/03/12 01:58:36;;;;;;;4.23;2.33;;;-0.90;99.90;;;;;;5014691;28;20219;-80
2023/03/12 02:01:02;;;;;;;2.57;2.30;;;-1.00;99.90;;;;;;4998325;28;20222;-80
2023/03/12 02:03:29;;;;;;;1.53;1.53;;;-1.00;99.90;;;;;;5013742;28;20180;-80
2023/03/12 02:06:03;;;;;;;2.23;2.03;;;-0.50;99.90;;;;;;5006328;28;20292;-80
2023/03/12 02:08:29;;;;;;;2.87;1.73;;;-1.00;99.90;;;;;;4998263;28;20650;-82
2023/03/12 02:10:55;;;;;;;1.90;1.73;;;-0.80;99.90;;;;;;5016062;28;20196;-81
2023/03/12 02:13:20;;;;;;;3.00;2.27;;;-1.00;99.90;;;;;;5015936;28;20289;-81
2023/03/12 02:15:46;;;;;;;10.77;2.47;;;-1.00;99.90;;;;;;4997915;28;20290;-81
2023/03/12 02:18:16;;;;;;;1.60;1.50;;;-1.10;99.90;;;;;;4998152;28;20187;-81
2023/03/12 02:20:48;;;;;;;8.53;2.47;;;-1.20;99.90;;;;;;5015249;28;20221;-81
2023/03/12 02:23:17;;;;;;;5.20;2.67;;;-1.20;99.90;;;;;;4998438;28;20177;-81
2023/03/12 02:25:50;;;;;;;3.90;2.20;;;-1.20;99.90;;;;;;5015613;28;20724;-81
2023/03/12 02:28:19;;;;;;;8.10;2.10;;;-1.30;99.90;;;;;;5015649;28;20180;-81
2023/03/12 02:30:50;;;;;;;2.73;2.00;;;-1.30;99.90;;;;;;5015281;28;20187;-81
2023/03/12 02:33:15;;;;;;;1.97;1.87;;;-1.10;99.90;;;;;;5014580;28;20637;-80
2023/03/12 02:35:44;;;;;;;2.27;2.13;;;-1.40;99.90;;;;;;4998018;28;20181;-81
2023/03/12 02:39:05;;;;;;;1.70;1.53;;;-1.40;99.90;;;;;;5015344;28;20545;-81
2023/03/12 02:41:32;;;;;;;1.93;1.57;;;-1.40;99.90;;;;;;4935470;29;20218;-82
2023/03/12 02:44:10;;;;;;;2.47;1.90;;;-1.40;99.90;;;;;;5000507;28;20668;-81
2023/03/12 02:46:43;;;;;;;3.27;3.00;;;-1.40;99.90;;;;;;5015166;28;20179;-81
2023/03/12 02:49:13;;;;;;;2.47;2.23;;;-1.40;99.90;;;;;;5015270;28;20234;-81
2023/03/12 02:51:40;;;;;;;2.13;1.93;;;-1.10;99.90;;;;;;5015003;28;20211;-82
2023/03/12 02:54:07;;;;;;;2.37;1.73;;;-1.50;99.90;;;;;;5014965;28;20538;-81
2023/03/12 02:56:33;;;;;;;3.03;2.00;;;-1.60;99.90;;;;;;5014984;28;20636;-82
2023/03/12 02:58:59;;;;;;;3.10;2.90;;;-1.40;99.90;;;;;;5015253;28;20180;-80
2023/03/12 03:01:24;;;;;;;1.20;1.20;;;-1.50;99.90;;;;;;5014799;28;20298;-82
2023/03/12 03:03:50;;;;;;;3.00;2.43;;;-1.60;99.90;;;;;;5014687;28;20223;-81
2023/03/12 03:06:16;;;;;;;2.97;2.53;;;-1.50;99.90;;;;;;4995072;28;20227;-80
2023/03/12 03:08:42;;;;;;;2.13;1.93;;;-1.60;99.90;;;;;;5003248;28;20595;-81
2023/03/12 03:11:07;;;;;;;5.23;2.80;;;-1.50;99.90;;;;;;4993944;28;20263;-80
2023/03/12 03:13:34;;;;;;;1.20;1.20;;;-0.80;99.90;;;;;;4993336;28;20647;-82
2023/03/12 03:16:00;;;;;;;6.23;2.27;;;-1.60;99.90;;;;;;4974271;28;20245;-81
2023/03/12 03:18:28;;;;;;;2.83;2.33;;;-1.60;99.90;;;;;;4990447;28;20200;-81
2023/03/12 03:20:58;;;;;;;6.27;2.27;;;-1.50;99.90;;;;;;4975194;28;20452;-82
2023/03/12 03:23:24;;;;;;;2.67;2.23;;;-1.60;99.90;;;;;;4975743;28;20170;-81
2023/03/12 03:25:51;;;;;;;2.70;1.50;;;-1.40;99.90;;;;;;4975334;28;20185;-81
2023/03/12 03:28:18;;;;;;;2.53;2.33;;;-1.60;99.90;;;;;;4975560;28;20670;-80
2023/03/12 03:30:44;;;;;;;3.97;2.67;;;-1.50;99.90;;;;;;4974102;28;20274;-82
2023/03/12 03:33:10;;;;;;;3.20;2.40;;;-1.60;99.90;;;;;;4990154;28;20279;-81
2023/03/12 03:35:36;;;;;;;4.27;2.43;;;-1.60;99.90;;;;;;4977142;28;20553;-83
2023/03/12 03:38:03;;;;;;;2.50;2.33;;;-1.60;99.90;;;;;;4984997;28;20638;-82
2023/03/12 03:40:29;;;;;;;2.73;2.53;;;-1.50;99.90;;;;;;4994480;28;20222;-82
2023/03/12 03:42:54;;;;;;;8.90;2.90;;;-0.70;99.90;;;;;;4988529;28;20193;-83
2023/03/12 03:45:20;;;;;;;3.10;2.00;;;-1.60;99.90;;;;;;4974054;28;20703;-82
2023/03/12 03:47:46;;;;;;;4.70;2.73;;;-1.60;99.90;;;;;;4989817;28;20603;-82
2023/03/12 03:50:12;;;;;;;7.23;2.97;;;-1.60;99.90;;;;;;4974584;28;20214;-83
2023/03/12 03:52:38;;;;;;;2.67;2.43;;;-1.60;99.90;;;;;;4990217;28;20272;-83
2023/03/12 03:55:04;;;;;;;3.07;2.83;;;-1.60;99.90;;;;;;4986318;28;20287;-81
2023/03/12 03:57:30;;;;;;;3.13;2.80;;;-1.60;99.90;;;;;;4973921;28;20226;-81
2023/03/12 03:59:57;;;;;;;3.03;2.73;;;-1.60;99.90;;;;;;4974719;28;20681;-82
2023/03/12 04:02:24;;;;;;;2.27;2.07;;;-1.50;99.90;;;;;;4975289;28;20236;-83
2023/03/12 04:04:50;;;;;;;1.83;1.73;;;-1.50;99.90;;;;;;4985121;28;20190;-81
2023/03/12 04:07:16;;;;;;;5.03;3.00;;;-1.50;99.90;;;;;;4975135;28;20267;-81
2023/03/12 04:09:42;;;;;;;3.23;3.03;;;-1.50;99.90;;;;;;4989777;28;20261;-81
2023/03/12 04:12:08;;;;;;;3.90;3.20;;;-1.50;99.90;;;;;;4974813;28;20194;-82
2023/03/12 04:14:33;;;;;;;2.37;2.17;;;-1.40;99.90;;;;;;4977702;28;20234;-82
2023/03/12 04:16:59;;;;;;;4.70;2.30;;;-1.40;99.90;;;;;;4976423;28;20292;-83
2023/03/12 04:19:25;;;;;;;2.93;2.13;;;-1.40;99.90;;;;;;4976618;28;20215;-82
2023/03/12 04:21:50;;;;;;;7.13;2.73;;;-1.40;99.90;;;;;;4993728;28;20218;-83
2023/03/12 04:24:17;;;;;;;1.97;1.77;;;-1.30;99.90;;;;;;4994313;28;20665;-82
2023/03/12 04:26:43;;;;;;;2.40;2.20;;;-1.40;99.90;;;;;;4993147;28;20670;-83
2023/03/12 04:29:09;;;;;;;3.97;1.93;;;-1.30;99.90;;;;;;4992874;28;20229;-82
2023/03/12 04:31:34;;;;;;;2.03;1.93;;;-1.30;99.90;;;;;;5002202;28;20276;-81
2023/03/12 04:34:00;;;;;;;6.07;3.47;;;-1.30;99.90;;;;;;4961486;28;20542;-83
2023/03/12 04:36:26;;;;;;;3.07;2.77;;;-1.40;99.90;;;;;;5000911;28;20231;-81
2023/03/12 04:38:51;;;;;;;3.93;2.30;;;-1.30;99.90;;;;;;4972889;28;20195;-82
2023/03/12 04:41:17;;;;;;;5.10;3.43;;;-0.60;99.90;;;;;;4992545;28;20223;-82
2023/03/12 04:43:43;;;;;;;2.37;2.17;;;-1.30;99.90;;;;;;4999094;28;20190;-81
2023/03/12 04:46:09;;;;;;;4.90;2.20;;;-1.30;99.90;;;;;;5013303;28;20217;-82
2023/03/12 04:48:35;;;;;;;3.20;2.90;;;-1.30;99.90;;;;;;4995852;28;20181;-82
2023/03/12 04:51:02;;;;;;;2.30;1.90;;;-1.30;99.90;;;;;;5013058;28;20236;-82
2023/03/12 04:53:28;;;;;;;3.10;2.03;;;-1.30;99.90;;;;;;5008632;28;20185;-82
2023/03/12 04:55:54;;;;;;;5.67;3.93;;;-0.90;99.90;;;;;;5013050;28;20219;-82
2023/03/12 04:58:21;;;;;;;3.07;2.87;;;-1.30;99.90;;;;;;4987950;28;20194;-82
2023/03/12 05:00:48;;;;;;;3.17;2.73;;;-1.00;99.90;;;;;;4993334;28;20220;-84
2023/03/12 05:03:14;;;;;;;2.37;2.17;;;-1.30;99.90;;;;;;4993437;28;20179;-81
2023/03/12 05:05:40;;;;;;;3.20;2.67;;;-1.30;99.90;;;;;;4993698;28;20218;-82
2023/03/12 05:08:06;;;;;;;4.87;3.10;;;-1.30;99.90;;;;;;4992359;28;20207;-81
2023/03/12 05:10:31;;;;;;;4.40;2.27;;;-1.30;99.90;;;;;;4995979;28;20197;-82
2023/03/12 05:12:57;;;;;;;8.07;2.60;;;-0.40;99.90;;;;;;4988011;28;20189;-82
2023/03/12 05:15:23;;;;;;;2.23;2.13;;;-1.30;99.90;;;;;;4993225;28;20249;-82
2023/03/12 05:17:49;;;;;;;6.13;1.77;;;-1.20;99.90;;;;;;4993131;28;20265;-82
2023/03/12 05:20:16;;;;;;;2.90;2.70;;;-1.20;99.90;;;;;;4993393;28;20543;-82
2023/03/12 05:22:42;;;;;;;4.13;2.77;;;-1.20;99.90;;;;;;4992272;28;20189;-83
2023/03/12 05:25:08;;;;;;;8.27;4.43;;;-1.10;99.90;;;;;;4992436;28;20188;-82
2023/03/12 05:27:35;;;;;;;3.50;2.13;;;-1.20;99.90;;;;;;4993445;28;20241;-82
2023/03/12 05:30:01;;;;;;;2.97;2.63;;;-1.10;99.90;;;;;;4975743;28;20588;-82
2023/03/12 05:32:26;;;;;;;2.53;2.33;;;-1.10;99.90;;;;;;4993020;28;20222;-82
2023/03/12 05:34:52;;;;;;;1.67;1.57;;;-0.50;99.90;;;;;;4993181;28;20696;-81
2023/03/12 05:37:18;;;;;;;2.07;1.97;;;-1.00;99.90;;;;;;4994275;28;20229;-82
2023/03/12 05:39:45;;;;;;;1.77;1.67;;;-1.00;99.90;;;;;;4996885;28;20232;-81
2023/03/12 05:42:14;;;;;;;8.13;4.43;;;-1.10;99.90;;;;;;4996301;28;20249;-83
2023/03/12 05:44:41;;;;;;;5.17;2.27;;;-1.00;99.90;;;;;;5001915;28;20676;-82
2023/03/12 05:47:07;;;;;;;3.10;2.73;;;-0.80;99.90;;;;;;5005636;28;20242;-82
2023/03/12 05:49:33;;;;;;;4.03;3.67;;;-1.00;99.90;;;;;;5011523;28;20184;-80
2023/03/12 05:51:59;;;;;;;2.57;2.37;;;-1.00;99.90;;;;;;5022448;28;20192;-82
2023/03/12 05:54:24;;;;;;;5.37;2.70;;;-1.10;99.90;;;;;;5015284;28;20671;-83
2023/03/12 05:56:50;;;;;;;1.93;1.83;;;-0.80;99.90;;;;;;5015342;28;20191;-83
2023/03/12 05:59:16;;;;;;;8.77;2.30;;;-1.00;99.90;;;;;;4997498;28;20188;-82
2023/03/12 06:01:42;;;;;;;2.40;2.03;;;-0.90;99.90;;;;;;5015272;28;20736;-82
2023/03/12 06:04:08;;;;;;;2.40;2.20;;;-0.90;99.90;;;;;;5015844;28;20186;-83
2023/03/12 06:06:36;;;;;;;5.63;3.33;;;-0.80;99.90;;;;;;5015790;28;20261;-82
2023/03/12 06:09:03;;;;;;;3.27;2.47;;;-0.10;99.90;;;;;;4997346;28;20211;-82
2023/03/12 06:11:28;;;;;;;4.67;2.00;;;-0.80;99.90;;;;;;4992026;28;20548;-82
2023/03/12 06:13:56;;;;;;;1.20;1.20;;;-0.70;99.90;;;;;;4987433;28;20200;-82
2023/03/12 06:16:24;;;;;;;1.97;1.87;;;-0.70;99.90;;;;;;5013960;28;20700;-82
2023/03/12 06:18:58;;;;;;;3.67;2.70;;;-0.20;99.90;;;;;;5013346;28;20208;-82
2023/03/12 06:21:26;;;;;;;1.90;1.80;;;-0.70;99.90;;;;;;5020861;28;20230;-83
2023/03/12 06:23:52;;;;;;;2.33;2.13;;;-0.60;99.90;;;;;;5013238;28;20192;-83
2023/03/12 06:26:20;;;;;;;2.63;2.33;;;-0.60;99.90;;;;;;5012601;28;20272;-80
2023/03/12 06:28:47;;;;;;;2.17;2.07;;;-0.60;99.90;;;;;;4985220;28;20691;-81
2023/03/12 06:31:13;;;;;;;4.40;3.00;;;-0.60;99.90;;;;;;5008583;28;20242;-80
2023/03/12 06:33:39;;;;;;;10.40;3.10;;;-0.60;99.90;;;;;;5029508;28;20199;-83
2023/03/12 06:36:06;;;;;;;1.93;1.50;;;-0.50;99.90;;;;;;5015472;28;20480;-83
2023/03/12 06:38:32;;;;;;;10.13;3.10;;;-0.60;99.90;;;;;;5013656;28;20190;-82
2023/03/12 06:41:04;;;;;;;4.47;2.17;;;-0.60;99.90;;;;;;4998757;28;20213;-84
2023/03/12 06:43:32;;;;;;;2.00;1.60;;;-0.50;99.90;;;;;;4993816;28;20896;-82
2023/03/12 06:45:59;;;;;;;3.10;2.77;;;-0.50;99.90;;;;;;4992727;28;20180;-82
2023/03/12 06:48:26;;;;;;;3.43;2.43;;;0.00;99.90;;;;;;4994495;28;20171;-81
2023/03/12 06:50:52;;;;;;;2.30;2.13;;;-0.40;99.90;;;;;;5001025;28;20186;-82
2023/03/12 06:53:19;;;;;;;7.33;4.73;;;-0.40;99.90;;;;;;4999146;28;20268;-81
2023/03/12 06:55:45;;;;;;;4.00;2.80;;;-0.40;99.90;;;;;;5028336;28;20240;-81
2023/03/12 06:58:11;;;;;;;2.17;1.97;;;-0.40;99.90;;;;;;5017913;28;20188;-81
2023/03/12 07:00:37;;;;;;;8.13;4.03;;;-0.50;99.90;;;;;;5012268;28;20255;-81
2023/03/12 07:03:03;;;;;;;1.90;1.80;;;-0.50;99.90;;;;;;5013400;28;20572;-82
2023/03/12 07:05:29;;;;;;;2.83;2.67;;;-0.40;99.90;;;;;;5013588;28;20250;-82
2023/03/12 07:07:55;;;;;;;4.50;2.87;;;-0.40;99.90;;;;;;4995856;28;20180;-81
2023/03/12 07:10:22;;;;;;;3.53;2.73;;;-0.30;99.90;;;;;;4961421;28;20696;-81
2023/03/12 07:12:47;;;;;;;3.07;2.80;;;-0.40;99.90;;;;;;5007205;28;20190;-81
2023/03/12 07:15:13;;;;;;;1.20;1.20;;;-0.30;99.90;;;;;;4984364;28;20239;-80
2023/03/12 07:17:39;;;;;;;6.97;2.20;;;-0.30;99.90;;;;;;5016724;28;20181;-82
2023/03/12 07:20:05;;;;;;;2.43;2.23;;;-0.20;99.90;;;;;;5017670;28;20196;-84
2023/03/12 07:22:31;;;;;;;6.73;2.60;;;-0.30;99.90;;;;;;5016696;28;20207;-80
2023/03/12 07:24:57;;;;;;;2.37;2.00;;;-0.20;99.90;;;;;;5018873;28;20638;-82
2023/03/12 07:27:22;;;;;;;3.43;2.53;;;0.50;99.90;;;;;;5002978;28;20178;-81
2023/03/12 07:29:48;;;;;;;12.73;3.40;;;-0.30;99.90;;;;;;4999326;28;20214;-80
2023/03/12 07:32:14;;;;;;;2.87;2.57;;;-0.20;99.90;;;;;;5035189;28;20196;-80
2023/03/12 07:34:39;;;;;;;2.10;1.77;;;-0.20;99.90;;;;;;5015601;28;20199;-82
2023/03/12 07:37:05;;;;;;;3.07;2.17;;;-0.10;99.90;;;;;;5015228;28;20182;-84
2023/03/12 07:39:31;;;;;;;1.77;1.67;;;-0.10;99.90;;;;;;5002308;28;20190;-84
2023/03/12 07:41:56;;;;;;;3.03;2.80;;;0.00;99.90;;;;;;4986212;28;20637;-81
2023/03/12 07:44:22;;;;;;;3.33;2.50;;;-0.10;99.90;;;;;;4994525;28;20215;-83
2023/03/12 07:46:48;;;;;;;7.70;3.07;;;0.00;99.90;;;;;;5013429;28;20188;-84
2023/03/12 07:49:13;;;;;;;2.70;2.50;;;0.00;99.90;;;;;;5012462;28;20668;-81
2023/03/12 07:51:39;;;;;;;1.80;1.60;;;0.10;99.90;;;;;;5012708;28;20720;-80
2023/03/12 07:54:05;;;;;;;1.93;1.83;;;0.10;99.90;;;;;;4994992;28;20678;-83
2023/03/12 07:56:31;;;;;;;2.57;1.77;;;0.10;99.90;;;;;;4995251;28;20259;-82
2023/03/12 07:58:56;;;;;;;1.57;1.47;;;0.10;99.90;;;;;;5013307;28;20177;-82
2023/03/12 08:01:24;;;;;;;2.07;1.47;;;0.10;99.90;;;;;;4976558;28;20239;-82
2023/03/12 08:03:49;;;;;;;7.07;4.30;;;0.10;99.90;;;;;;5012549;28;20193;-82
2023/03/12 08:06:15;;;;;;;4.40;3.07;;;0.10;99.90;;;;;;4994807;28;20260;-82
2023/03/12 08:08:41;;;;;;;2.77;2.50;;;0.10;99.90;;;;;;4995264;28;20181;-83
2023/03/12 08:11:08;;;;;;;3.93;2.80;;;0.20;99.90;;;;;;4991297;28;20188;-83
2023/03/12 08:13:34;;;;;;;2.03;1.93;;;0.30;99.90;;;;;;4990664;28;20188;-83
2023/03/12 08:15:59;;;;;;;6.50;3.73;;;0.30;99.90;;;;;;4992017;28;20868;-82
2023/03/12 08:18:25;;;;;;;3.53;2.23;;;0.40;99.90;;;;;;4996196;28;20638;-83
2023/03/12 08:20:53;;;;;;;2.77;1.77;;;0.40;99.90;;;;;;5012521;28;20763;-83
2023/03/12 08:23:19;;;;;;;2.70;2.47;;;0.50;99.90;;;;;;5012622;28;20649;-82
2023/03/12 08:25:47;;;;;;;2.23;2.07;;;0.50;99.90;;;;;;5011699;28;20212;-83
2023/03/12 08:28:14;;;;;;;5.30;3.07;;;0.60;99.90;;;;;;5011725;28;20646;-83
2023/03/12 08:30:48;;;;;;;3.47;2.50;;;0.60;99.90;;;;;;5012287;28;20197;-83
2023/03/12 08:33:14;;;;;;;3.27;2.67;;;0.60;99.90;;;;;;5008052;28;20173;-83
2023/03/12 08:35:40;;;;;;;1.90;1.80;;;0.60;99.90;;;;;;4968382;28;20208;-83
2023/03/12 08:38:06;;;;;;;4.57;2.90;;;0.60;99.90;;;;;;4998335;28;20185;-82
2023/03/12 08:40:31;;;;;;;2.50;2.33;;;0.60;99.90;;;;;;5010797;28;20710;-82
2023/03/12 08:42:57;;;;;;;3.00;2.20;;;0.60;99.90;;;;;;5012228;28;20638;-82
2023/03/12 08:45:23;;;;;;;2.30;2.10;;;0.60;99.90;;;;;;5011693;28;20200;-82
2023/03/12 08:47:49;;;;;;;2.00;1.87;;;0.60;99.90;;;;;;4994905;28;20702;-82
2023/03/12 08:50:15;;;;;;;2.33;2.13;;;0.70;99.90;;;;;;4994260;28;20181;-83
2023/03/12 08:52:42;;;;;;;2.93;2.10;;;0.70;99.90;;;;;;5011635;28;20203;-82
2023/03/12 08:55:09;;;;;;;3.10;2.90;;;0.70;99.90;;;;;;4986171;28;20678;-81
2023/03/12 08:57:34;;;;;;;2.67;1.70;;;0.70;99.90;;;;;;4953705;28;20608;-82
2023/03/12 09:00:00;;;;;;;2.77;2.53;;;0.70;99.90;;;;;;4986633;28;20280;-82
2023/03/12 09:02:27;;;;;;;2.07;1.87;;;0.60;99.90;;;;;;4993739;28;20580;-83
2023/03/12 09:04:53;;;;;;;3.03;2.00;;;0.70;99.90;;;;;;5012418;28;20178;-82
2023/03/12 09:07:19;;;;;;;4.10;3.27;;;0.70;99.90;;;;;;4994218;28;20189;-81
2023/03/12 09:09:44;;;;;;;3.07;2.23;;;0.60;99.90;;;;;;5009733;28;20196;-82
2023/03/12 09:12:10;;;;;;;3.10;1.90;;;0.50;99.90;;;;;;5011230;28;20249;-83
2023/03/12 09:14:36;;;;;;;5.80;2.80;;;0.60;99.90;;;;;;5013759;28;20232;-81
2023/03/12 09:17:02;;;;;;;2.20;2.00;;;0.60;99.90;;;;;;4973374;28;20188;-81
2023/03/12 09:19:28;;;;;;;4.07;2.93;;;0.50;99.90;;;;;;5012410;28;20650;-82
2023/03/12 09:21:54;;;;;;;2.50;2.30;;;0.70;99.90;;;;;;4994930;28;20217;-82
2023/03/12 09:24:20;;;;;;;2.60;2.03;;;0.70;99.90;;;;;;4997821;28;20677;-83
2023/03/12 09:26:46;;;;;;;5.17;3.00;;;0.70;99.90;;;;;;4981507;28;20177;-82
2023/03/12 09:29:12;;;;;;;2.17;2.03;;;0.70;99.90;;;;;;5015336;28;20197;-82
2023/03/12 09:31:37;;;;;;;5.53;3.83;;;0.70;99.90;;;;;;4972774;28;20186;-82
2023/03/12 09:34:04;;;;;;;2.50;2.30;;;0.80;99.90;;;;;;4996570;28;20181;-81
2023/03/12 09:36:30;;;;;;;2.60;2.40;;;0.80;99.90;;;;;;5015116;28;20267;-82
2023/03/12 09:38:56;;;;;;;2.37;2.07;;;0.80;99.90;;;;;;5015202;28;20593;-81
2023/03/12 09:41:43;;;;;;;3.60;2.40;;;0.90;99.90;;;;;;4996101;28;20303;-82
2023/03/12 09:44:31;;;;;;;2.87;1.83;;;1.10;99.90;;;;;;5013633;28;20208;-82
2023/03/12 09:47:07;;;;;;;6.33;2.77;;;1.20;99.90;;;;;;5010366;28;20264;-82
2023/03/12 09:49:45;;;;;;;3.47;2.07;;;1.20;99.90;;;;;;4997212;28;20192;-83
2023/03/12 09:52:53;;;;;;;2.57;2.37;;;1.20;99.90;;;;;;4997780;28;20173;-82
2023/03/12 09:55:21;;;;;;;1.93;1.83;;;1.20;99.90;;;;;;4978202;28;20213;-82
2023/03/12 09:57:50;;;;;;;2.83;2.63;;;0.90;99.90;;;;;;4984827;28;20177;-83
2023/03/12 10:00:21;;;;;;;3.77;2.30;;;0.80;99.90;;;;;;5014621;28;20215;-82
2023/03/12 10:03:21;;;;;;;4.97;3.30;;;0.80;99.90;;;;;;5012434;28;20601;-81
2023/03/12 10:06:14;;;;;;;4.27;1.70;;;0.70;99.90;;;;;;5012534;28;20180;-81
2023/03/12 10:09:01;;;;;;;2.20;2.10;;;0.80;99.90;;;;;;5014174;28;20180;-83
2023/03/12 10:11:36;;;;;;;3.57;2.60;;;0.90;99.90;;;;;;5009766;28;20184;-82
2023/03/12 10:14:09;;;;;;;3.00;2.70;;;0.90;99.90;;;;;;5011864;28;20189;-82
2023/03/12 10:16:59;;;;;;;3.77;2.73;;;0.90;99.90;;;;;;5014545;28;20817;-81
2023/03/12 10:19:37;;;;;;;2.20;2.00;;;1.10;99.90;;;;;;4991318;28;20260;-82
2023/03/12 10:22:25;;;;;;;2.47;2.20;;;1.30;99.90;;;;;;5013927;28;20205;-81
2023/03/12 10:25:05;;;;;;;7.43;3.93;;;1.50;99.90;;;;;;5011768;28;20177;-81
2023/03/12 10:27:35;;;;;;;3.03;2.27;;;1.70;99.90;;;;;;4994898;28;20290;-80
2023/03/12 10:30:11;;;;;;;6.47;2.57;;;1.90;99.90;;;;;;4991077;28;20734;-80
2023/03/12 10:32:47;;;;;;;3.03;2.20;;;2.00;99.90;;;;;;4979756;28;20217;-82
2023/03/12 10:35:20;;;;;;;3.40;1.77;;;2.00;99.90;;;;;;5011620;28;20199;-81
2023/03/12 10:37:52;;;;;;;2.00;1.40;;;2.00;99.90;;;;;;5012220;28;20213;-82
2023/03/12 10:40:22;;;;;;;2.13;1.83;;;1.90;99.90;;;;;;4982298;28;20328;-80
2023/03/12 10:42:49;;;;;;;3.43;2.17;;;1.70;99.90;;;;;;5008066;28;20336;-82
2023/03/12 10:45:48;;;;;;;2.50;2.13;;;1.70;99.90;;;;;;5010398;28;20217;-83
2023/03/12 10:48:23;;;;;;;2.30;1.90;;;1.60;99.90;;;;;;5005491;28;20270;-83
2023/03/12 10:51:07;;;;;;;2.83;2.63;;;1.50;99.90;;;;;;5012766;28;20192;-82
2023/03/12 10:53:35;;;;;;;1.53;1.43;;;1.50;99.90;;;;;;5011129;28;20673;-81
2023/03/12 10:56:02;;;;;;;1.27;1.20;;;1.80;99.90;;;;;;5007147;28;20273;-82
2023/03/12 10:58:43;;;;;;;5.13;3.73;;;2.00;99.90;;;;;;4993695;28;20182;-83
2023/03/12 11:01:29;;;;;;;1.70;1.60;;;2.10;99.90;;;;;;4991862;28;20256;-82
2023/03/12 11:04:17;;;;;;;2.53;2.13;;;2.30;99.90;;;;;;5005086;28;20195;-82
2023/03/12 11:07:01;;;;;;;1.27;1.17;;;2.30;99.90;;;;;;4977394;28;20621;-80
2023/03/12 11:09:26;;;;;;;3.07;2.33;;;2.30;99.90;;;;;;5004073;28;20305;-82
2023/03/12 11:11:52;;;;;;;8.20;2.03;;;2.30;99.90;;;;;;5006905;28;20265;-83
2023/03/12 11:14:24;;;;;;;2.70;2.43;;;2.40;99.90;;;;;;4973571;28;20681;-83
2023/03/12 11:16:51;;;;;;;3.87;1.93;;;2.40;99.90;;;;;;5008311;28;20835;-81
2023/03/12 11:19:31;;;;;;;3.13;2.37;;;2.60;99.90;;;;;;5009219;28;20192;-82
2023/03/12 11:22:06;;;;;;;6.13;2.30;;;2.70;99.90;;;;;;4997223;28;20659;-83
2023/03/12 11:24:33;;;;;;;2.87;1.53;;;2.90;99.90;;;;;;5004655;28;20201;-84
2023/03/12 11:27:06;;;;;;;2.43;1.70;;;2.80;99.90;;;;;;4997069;28;20185;-81
2023/03/12 11:29:47;;;;;;;3.40;2.20;;;2.90;99.90;;;;;;5000363;28;20186;-85
2023/03/12 11:32:31;;;;;;;4.93;1.40;;;2.90;99.90;;;;;;5005062;28;20691;-84
2023/03/12 11:34:58;;;;;;;3.87;2.73;;;3.10;99.90;;;;;;4996385;28;20193;-84
2023/03/12 11:37:32;;;;;;;2.40;2.20;;;3.00;99.90;;;;;;5001936;28;20185;-85
2023/03/12 11:40:28;;;;;;;2.40;2.03;;;3.00;99.90;;;;;;4991930;28;20308;-83
2023/03/12 11:43:06;;;;;;;4.30;2.17;;;3.10;99.90;;;;;;4989367;28;20186;-84
2023/03/12 11:45:52;;;;;;;2.90;1.97;;;3.00;99.90;;;;;;5006607;28;20169;-83
2023/03/12 11:48:33;;;;;;;8.30;2.13;;;2.80;99.90;;;;;;5004347;28;20184;-86
2023/03/12 11:51:25;;;;;;;1.90;1.67;;;2.90;99.90;;;;;;4997935;28;20198;-84
2023/03/12 11:54:09;;;;;;;2.07;1.53;;;3.10;99.90;;;;;;4981302;28;20181;-84
2023/03/12 11:56:45;;;;;;;4.47;2.80;;;3.30;99.90;;;;;;5004210;28;20217;-84
2023/03/12 11:59:32;;;;;;;12.53;2.93;;;3.40;99.90;;;;;;4998072;28;20209;-81
2023/03/12 12:02:28;;;;;;;5.97;2.67;;;3.30;99.90;;;;;;5001814;28;20217;-84
2023/03/12 12:05:09;;;;;;;1.57;1.50;;;3.40;99.90;;;;;;4987657;28;20216;-83
2023/03/12 12:07:46;;;;;;;2.03;1.70;;;3.70;99.90;;;;;;4997950;28;20185;-86
2023/03/12 12:10:21;;;;;;;1.83;1.67;;;3.80;99.90;;;;;;5006466;28;20246;-83
2023/03/12 12:12:59;;;;;;;2.63;2.10;;;3.60;97.50;;;;;;4994420;28;20196;-83
2023/03/12 12:16:00;;;;;;;2.20;1.97;;;3.70;97.00;;;;;;4991776;28;20286;-83
2023/03/12 12:18:29;;;;;;;1.30;1.20;;;3.70;99.40;;;;;;5004757;28;20311;-84
2023/03/12 12:21:06;;;;;;;2.97;1.83;;;3.50;94.40;;;;;;5000051;28;20694;-84
2023/03/12 12:24:00;;;;;;;2.30;1.53;;;3.60;94.20;;;;;;4992906;28;20172;-84
2023/03/12 12:26:45;;;;;;;3.23;1.33;;;3.60;93.70;;;;;;5000380;28;20674;-82
2023/03/12 12:29:48;;;;;;;1.43;1.23;;;3.90;93.50;;;;;;5001079;28;20189;-82
2023/03/12 12:32:39;;;;;;;0.87;0.87;;;3.90;91.60;;;;;;4977073;28;20209;-86
2023/03/12 12:35:35;;;;;;;2.03;1.63;;;4.00;91.20;;;;;;5005314;28;20185;-84
2023/03/12 12:38:14;;;;;;;1.77;1.23;;;4.30;92.90;;;;;;4988109;28;20193;-85
2023/03/12 12:40:46;;;;;;;1.37;1.20;;;4.50;91.30;;;;;;4986033;28;20604;-83
2023/03/12 12:43:38;;;;;;;2.63;1.73;;;4.70;90.10;;;;;;5000499;28;20262;-83
2023/03/12 12:46:18;;;;;;;3.07;1.37;;;4.30;86.70;;;;;;5000261;28;20181;-84
2023/03/12 12:48:59;;;;;;;3.40;1.07;;;4.00;86.80;;;;;;5003157;28;20188;-84
2023/03/12 12:51:38;;;;;;;13.93;5.40;;;4.00;88.60;;;;;;5011587;28;20661;-83
2023/03/12 12:54:15;;;;;;;2.07;1.67;;;4.30;90.30;;;;;;5010495;28;20185;-82
2023/03/12 12:57:13;;;;;;;1.43;1.33;;;4.10;88.40;;;;;;5009638;28;20181;-83
2023/03/12 12:59:54;;;;;;;1.77;1.00;;;4.00;89.90;;;;;;5011701;28;20681;-84
2023/03/12 13:02:28;;;;;;;1.73;1.00;;;4.30;88.50;;;;;;5006475;28;20227;-83
2023/03/12 13:05:00;;;;;;;1.07;1.07;;;4.50;88.40;;;;;;5006594;28;20185;-82